Terminal Aerodrome Forecast
Issued by NWS

Current Version | Previous Version | Text Only | Print | Product List | Glossary On
Versions: 1 2 3 4 5 6 7 8 9 10 11 12 13 14 15 16
000
FTUS41 KBTV 140500
TAFMPV
TAF
KMPV 140520Z 1406/1506 23007KT 6SM BR SCT015 OVC070
     FM140900 VRB03KT 2SM BR BKN003
     FM141200 25006KT P6SM SCT050=

USA.gov is the U.S. government's official web portal to all federal, state and local government web resources and services.